Terminal Aerodrome Forecast
Issued by NWS

Home | Current Version | Previous Version | Text Only | Print | Product List | Glossary On
Versions: 1 2 3 4 5 6 7 8 9 10 11 12 13 14 15
000
FTUS44 KTSA 232320
TAFMLC
TAF
KMLC 232320Z 2400/2424 32013KT P6SM BKN120
     FM240200 32003KT P6SM SCT050 BKN250
     FM241500 33012KT P6SM SCT060 SCT250
     FM241800 32012G21KT P6SM SCT250=

USA.gov is the U.S. government's official web portal to all federal, state and local government web resources and services.